createdAt,value
2023-03-26T00:00:23.321Z,71.54
2023-03-26T00:01:23.412Z,71.42
2023-03-26T00:02:23.667Z,71.57
2023-03-26T00:03:23.690Z,71.56
2023-03-26T00:04:23.951Z,71.51
2023-03-26T00:05:23.898Z,71.69
2023-03-26T00:06:23.998Z,71.79
2023-03-26T00:07:24.209Z,71.67
2023-03-26T00:08:24.205Z,71.75
2023-03-26T00:09:24.381Z,71.68
2023-03-26T00:10:24.482Z,71.67
2023-03-26T00:11:24.570Z,71.85
2023-03-26T00:12:24.666Z,71.87
2023-03-26T00:13:24.781Z,71.88
2023-03-26T00:14:25.003Z,71.76
2023-03-26T00:15:25.011Z,71.80
2023-03-26T00:16:25.140Z,71.75
2023-03-26T00:17:25.338Z,71.74
2023-03-26T00:18:25.356Z,71.76
2023-03-26T00:19:25.553Z,71.77
2023-03-26T00:20:25.599Z,71.89
2023-03-26T00:21:25.713Z,71.69
2023-03-26T00:22:25.820Z,71.73
2023-03-26T00:23:25.930Z,71.62
2023-03-26T00:24:26.134Z,71.54
2023-03-26T00:25:26.224Z,71.67
2023-03-26T00:26:26.324Z,71.57
2023-03-26T00:27:26.395Z,71.71
2023-03-26T00:28:26.473Z,71.65
2023-03-26T00:29:26.590Z,71.66
2023-03-26T00:30:26.750Z,71.67
2023-03-26T00:31:26.848Z,71.64
2023-03-26T00:32:26.940Z,71.71
2023-03-26T00:33:27.013Z,71.71
2023-03-26T00:34:27.136Z,71.80
2023-03-26T00:35:27.252Z,71.69
2023-03-26T00:36:27.597Z,71.74
2023-03-26T00:37:27.499Z,71.74
2023-03-26T00:38:28.269Z,71.72
2023-03-26T00:39:27.731Z,71.78
2023-03-26T00:40:27.850Z,71.67
2023-03-26T00:41:28.030Z,71.65
2023-03-26T00:42:28.100Z,71.45
2023-03-26T00:43:28.389Z,71.65
2023-03-26T00:44:28.307Z,71.55
2023-03-26T00:45:28.471Z,71.52
2023-03-26T00:46:28.616Z,71.58
2023-03-26T00:47:28.756Z,71.67
2023-03-26T00:48:38.225Z,71.56
2023-03-26T00:49:29.888Z,71.20
2023-03-26T00:50:28.986Z,71.16
2023-03-26T00:51:29.189Z,71.12
2023-03-26T00:52:29.303Z,70.86
2023-03-26T00:53:29.400Z,71.04
2023-03-26T00:54:29.450Z,71.04
2023-03-26T00:55:29.652Z,71.02
2023-03-26T00:56:29.798Z,70.94
2023-03-26T00:57:35.598Z,70.88
2023-03-26T00:58:30.895Z,70.82
2023-03-26T00:59:29.997Z,70.92
2023-03-26T01:00:30.171Z,70.98
2023-03-26T01:01:30.473Z,70.78
2023-03-26T01:02:30.485Z,70.80
2023-03-26T01:03:30.515Z,70.94
2023-03-26T01:04:31.173Z,70.73
2023-03-26T01:05:30.687Z,70.77
2023-03-26T01:06:30.752Z,70.57
2023-03-26T01:07:30.981Z,70.69
2023-03-26T01:08:30.996Z,70.62
2023-03-26T01:09:31.145Z,70.54
2023-03-26T01:10:31.179Z,70.62
2023-03-26T01:11:31.305Z,70.54
2023-03-26T01:12:31.492Z,70.24
2023-03-26T01:13:31.566Z,70.51
2023-03-26T01:14:31.622Z,70.39
2023-03-26T01:15:31.758Z,70.39
2023-03-26T01:16:31.868Z,70.31
2023-03-26T01:17:32.080Z,70.45
2023-03-26T01:18:32.435Z,70.23
2023-03-26T01:19:32.248Z,70.33
2023-03-26T01:20:32.352Z,70.57
2023-03-26T01:21:32.483Z,70.45
2023-03-26T01:22:32.610Z,70.59
2023-03-26T01:23:32.684Z,70.79
2023-03-26T01:24:32.844Z,70.66
2023-03-26T01:25:32.904Z,70.80
2023-03-26T01:26:33.012Z,70.93
2023-03-26T01:27:33.299Z,70.88
2023-03-26T01:28:33.238Z,70.78
2023-03-26T01:29:33.409Z,70.98
2023-03-26T01:30:33.467Z,71.05
2023-03-26T01:31:33.604Z,71.02
2023-03-26T01:32:33.787Z,71.15
2023-03-26T01:33:34.013Z,71.08
2023-03-26T01:34:33.935Z,71.16
2023-03-26T01:35:34.069Z,71.09
2023-03-26T01:36:34.238Z,71.06
2023-03-26T01:37:34.293Z,71.38
2023-03-26T01:38:34.407Z,71.25
2023-03-26T01:39:34.646Z,71.21
2023-03-26T01:40:34.608Z,71.37
2023-03-26T01:41:34.801Z,71.43
2023-03-26T01:42:34.882Z,71.41
2023-03-26T01:43:34.999Z,71.48
2023-03-26T01:44:35.117Z,71.39
2023-03-26T01:45:35.245Z,71.58
2023-03-26T01:46:35.308Z,71.63
2023-03-26T01:47:35.491Z,71.60
2023-03-26T01:48:35.516Z,71.55
2023-03-26T01:49:37.178Z,71.70
2023-03-26T01:50:35.768Z,71.67
2023-03-26T01:51:35.998Z,71.66
2023-03-26T01:52:35.984Z,71.68
2023-03-26T01:53:36.085Z,71.70
2023-03-26T01:54:36.271Z,71.85
2023-03-26T01:55:36.352Z,71.75
2023-03-26T01:56:36.453Z,71.74
2023-03-26T01:57:36.565Z,71.87
2023-03-26T01:58:37.032Z,71.86
2023-03-26T01:59:36.994Z,72.04
2023-03-26T02:00:36.864Z,71.81
2023-03-26T02:01:37.093Z,71.91
2023-03-26T02:02:37.408Z,71.91
2023-03-26T02:03:37.280Z,71.96
2023-03-26T02:04:37.349Z,72.10
2023-03-26T02:05:37.469Z,72.01
2023-03-26T02:06:37.654Z,72.04
2023-03-26T02:07:37.714Z,72.14
2023-03-26T02:08:37.888Z,72.16
2023-03-26T02:09:37.935Z,72.23
2023-03-26T02:10:38.003Z,72.14
2023-03-26T02:11:38.110Z,72.16
2023-03-26T02:12:38.245Z,72.19
2023-03-26T02:13:38.397Z,72.22
2023-03-26T02:14:38.434Z,72.27
2023-03-26T02:15:38.589Z,72.38
2023-03-26T02:16:38.714Z,72.57
2023-03-26T02:17:38.824Z,72.60
2023-03-26T02:18:39.046Z,72.58
2023-03-26T02:19:39.074Z,72.57
2023-03-26T02:20:39.148Z,72.88
2023-03-26T02:21:39.241Z,73.05
2023-03-26T02:22:39.378Z,72.98
2023-03-26T02:23:39.461Z,73.05
2023-03-26T02:24:39.591Z,73.23
2023-03-26T02:25:42.256Z,73.16
2023-03-26T02:26:39.832Z,73.20
2023-03-26T02:27:40.058Z,73.47
2023-03-26T02:28:40.074Z,73.62
2023-03-26T02:29:40.209Z,73.76
2023-03-26T02:30:40.404Z,73.66
2023-03-26T02:31:40.518Z,73.89
2023-03-26T02:32:40.593Z,73.89
2023-03-26T02:33:40.697Z,73.77
2023-03-26T02:34:40.814Z,73.86
2023-03-26T02:35:40.964Z,74.00
2023-03-26T02:36:41.085Z,74.14
2023-03-26T02:37:41.115Z,74.12
2023-03-26T02:38:41.253Z,74.15
2023-03-26T02:39:41.310Z,74.21
2023-03-26T02:40:41.442Z,74.28
2023-03-26T02:41:41.539Z,74.51
2023-03-26T02:42:41.713Z,74.45
2023-03-26T02:43:41.783Z,74.46
2023-03-26T02:44:41.978Z,74.27
2023-03-26T02:45:42.080Z,74.17
2023-03-26T02:46:42.193Z,74.28
2023-03-26T02:47:42.698Z,74.28
2023-03-26T02:48:42.371Z,74.27
2023-03-26T02:49:42.545Z,74.39
2023-03-26T02:50:42.643Z,74.52
2023-03-26T02:51:42.714Z,74.59
2023-03-26T02:52:42.868Z,74.67
2023-03-26T02:53:42.981Z,74.64
2023-03-26T02:54:43.043Z,74.90
2023-03-26T02:55:43.163Z,75.02
2023-03-26T02:56:43.388Z,75.01
2023-03-26T02:57:43.375Z,75.18
2023-03-26T02:58:43.500Z,75.29
2023-03-26T02:59:43.607Z,75.70
2023-03-26T03:00:43.719Z,75.84
2023-03-26T03:01:43.855Z,75.83
2023-03-26T03:02:44.016Z,76.09
2023-03-26T03:03:44.084Z,76.40
2023-03-26T03:04:44.199Z,76.37
2023-03-26T03:05:44.362Z,76.57
2023-03-26T03:06:44.442Z,76.21
2023-03-26T03:07:44.503Z,76.27
2023-03-26T03:08:44.626Z,76.19
2023-03-26T03:09:44.777Z,76.09
2023-03-26T03:10:44.840Z,76.09
2023-03-26T03:11:44.949Z,76.37
2023-03-26T03:12:45.109Z,76.47
2023-03-26T03:13:45.184Z,76.58
2023-03-26T03:14:45.350Z,76.93
2023-03-26T03:15:45.399Z,77.01
2023-03-26T03:16:45.572Z,77.17
2023-03-26T03:17:45.651Z,77.40
2023-03-26T03:18:45.738Z,77.61
2023-03-26T03:19:45.850Z,78.00
2023-03-26T03:20:45.965Z,78.26
2023-03-26T03:21:46.276Z,78.42
2023-03-26T03:22:46.240Z,78.65
2023-03-26T03:23:46.335Z,78.80
2023-03-26T03:24:46.422Z,78.86
2023-03-26T03:25:46.588Z,78.87
2023-03-26T03:26:47.612Z,79.06
2023-03-26T03:27:46.860Z,79.19
2023-03-26T03:28:46.940Z,79.28
2023-03-26T03:29:47.111Z,79.40
2023-03-26T03:30:47.323Z,79.69
2023-03-26T03:31:48.304Z,79.62
2023-03-26T03:32:47.468Z,79.82
2023-03-26T03:33:47.551Z,79.82
2023-03-26T03:34:47.693Z,79.82
2023-03-26T03:35:47.839Z,79.89
2023-03-26T03:36:47.929Z,79.89
2023-03-26T03:37:48.043Z,79.96
2023-03-26T03:38:48.150Z,79.99
2023-03-26T03:39:48.357Z,80.09
2023-03-26T03:40:48.446Z,80.23
2023-03-26T03:41:48.457Z,80.25
2023-03-26T03:42:48.597Z,80.30
2023-03-26T03:43:48.780Z,80.31
2023-03-26T03:44:48.857Z,80.29
2023-03-26T03:45:49.006Z,80.33
2023-03-26T03:46:49.087Z,80.30
2023-03-26T03:47:49.769Z,80.40
2023-03-26T03:48:49.338Z,80.40
2023-03-26T03:49:49.416Z,80.47
2023-03-26T03:50:49.648Z,80.48
2023-03-26T03:51:51.418Z,80.52
2023-03-26T03:52:49.768Z,80.61
2023-03-26T03:53:49.859Z,80.65
2023-03-26T03:54:49.979Z,80.31
2023-03-26T03:55:50.111Z,80.42
2023-03-26T03:56:50.234Z,80.41
2023-03-26T03:57:50.345Z,80.38
2023-03-26T03:58:50.442Z,80.41
2023-03-26T03:59:50.553Z,80.45
2023-03-26T04:00:50.705Z,80.38
2023-03-26T04:01:50.900Z,80.35
2023-03-26T04:02:50.965Z,80.43
2023-03-26T04:03:51.150Z,80.62
2023-03-26T04:04:51.190Z,80.61
2023-03-26T04:05:51.283Z,80.77
2023-03-26T04:06:51.421Z,80.87
2023-03-26T04:07:51.628Z,80.95
2023-03-26T04:08:51.681Z,81.00
2023-03-26T04:09:51.757Z,81.10
2023-03-26T04:10:51.877Z,81.22
2023-03-26T04:11:52.014Z,81.17
2023-03-26T04:12:52.132Z,81.25
2023-03-26T04:13:52.272Z,81.25
2023-03-26T04:14:52.354Z,81.08
2023-03-26T04:15:52.648Z,81.09
2023-03-26T04:16:52.605Z,80.99
2023-03-26T04:17:52.785Z,80.88
2023-03-26T04:18:52.794Z,80.72
2023-03-26T04:19:52.932Z,80.70
2023-03-26T04:20:53.013Z,80.83
2023-03-26T04:21:53.132Z,80.87
2023-03-26T04:22:53.257Z,80.91
2023-03-26T04:23:53.390Z,81.00
2023-03-26T04:24:53.494Z,81.04
2023-03-26T04:25:54.058Z,80.99
2023-03-26T04:26:53.769Z,80.73
2023-03-26T04:27:53.927Z,80.76
2023-03-26T04:28:53.936Z,80.72
2023-03-26T04:29:54.085Z,80.89
2023-03-26T04:30:54.177Z,80.92
2023-03-26T04:31:54.397Z,81.13
2023-03-26T04:32:54.507Z,81.07
2023-03-26T04:33:54.569Z,81.17
2023-03-26T04:34:54.708Z,81.32
2023-03-26T04:35:55.001Z,81.18
2023-03-26T04:36:55.076Z,81.66
2023-03-26T04:37:55.052Z,82.27
2023-03-26T04:38:55.209Z,82.90
2023-03-26T04:39:55.307Z,83.66
2023-03-26T04:40:55.376Z,84.25
2023-03-26T04:41:55.534Z,84.72
2023-03-26T04:42:55.686Z,84.89
2023-03-26T04:43:55.680Z,85.14
2023-03-26T04:44:55.791Z,85.02
2023-03-26T04:45:56.119Z,85.40
2023-03-26T04:46:56.071Z,85.43
2023-03-26T04:47:56.284Z,85.89
2023-03-26T04:48:56.246Z,86.21
2023-03-26T04:49:56.362Z,86.41
2023-03-26T04:50:56.473Z,86.65
2023-03-26T04:51:56.600Z,86.91
2023-03-26T04:52:56.727Z,87.25
2023-03-26T04:53:56.861Z,87.44
2023-03-26T04:54:56.951Z,87.39
2023-03-26T04:55:57.223Z,87.46
2023-03-26T04:56:57.203Z,87.73
2023-03-26T04:57:57.308Z,87.97
2023-03-26T04:58:57.417Z,88.07
2023-03-26T04:59:57.533Z,88.28
2023-03-26T05:00:57.742Z,88.31
2023-03-26T05:01:57.734Z,88.33
2023-03-26T05:02:57.947Z,88.40
2023-03-26T05:03:58.027Z,88.37
2023-03-26T05:04:58.081Z,88.54
2023-03-26T05:05:58.201Z,88.67
2023-03-26T05:06:58.368Z,88.76
2023-03-26T05:07:58.521Z,88.78
2023-03-26T05:08:58.537Z,88.75
2023-03-26T05:09:58.617Z,88.79
2023-03-26T05:10:58.750Z,88.83
2023-03-26T05:11:58.964Z,88.92
2023-03-26T05:12:59.049Z,88.93
2023-03-26T05:13:59.216Z,89.00
2023-03-26T05:14:59.184Z,89.04
2023-03-26T05:15:59.300Z,89.11
2023-03-26T05:16:59.388Z,89.20
2023-03-26T05:17:59.570Z,89.25
2023-03-26T05:18:59.675Z,89.33
2023-03-26T05:19:59.758Z,89.25
2023-03-26T05:20:59.866Z,89.38
2023-03-26T05:21:59.979Z,89.52
2023-03-26T05:23:00.103Z,89.53
2023-03-26T05:24:00.227Z,89.56
2023-03-26T05:25:00.358Z,89.54
2023-03-26T05:26:00.458Z,89.56
2023-03-26T05:27:00.612Z,89.61
2023-03-26T05:28:00.785Z,89.67
2023-03-26T05:29:00.818Z,89.67
2023-03-26T05:30:00.966Z,89.70
2023-03-26T05:31:01.086Z,89.60
2023-03-26T05:32:01.149Z,89.64
2023-03-26T05:33:01.303Z,89.73
2023-03-26T05:34:01.523Z,89.69
2023-03-26T05:35:01.543Z,89.80
2023-03-26T05:36:01.670Z,89.83
2023-03-26T05:37:01.778Z,89.87
2023-03-26T05:38:01.885Z,89.95
2023-03-26T05:39:02.003Z,90.04
2023-03-26T05:40:02.129Z,90.03
2023-03-26T05:41:02.252Z,90.05
2023-03-26T05:42:02.342Z,90.10
2023-03-26T05:43:02.473Z,90.11
2023-03-26T05:44:02.616Z,90.17
2023-03-26T05:45:02.669Z,90.16
2023-03-26T05:46:02.849Z,90.11
2023-03-26T05:47:02.889Z,90.07
2023-03-26T05:48:03.119Z,90.13
2023-03-26T05:49:03.183Z,90.10
2023-03-26T05:50:03.242Z,90.13
2023-03-26T05:51:03.403Z,90.12
2023-03-26T05:52:03.481Z,90.12
2023-03-26T05:53:03.560Z,90.10
2023-03-26T05:54:03.717Z,90.10
2023-03-26T05:55:03.785Z,90.07
2023-03-26T05:56:03.917Z,89.98
2023-03-26T05:57:04.129Z,90.05
2023-03-26T05:58:04.158Z,90.13
2023-03-26T05:59:04.315Z,90.22
2023-03-26T06:00:04.447Z,90.16
2023-03-26T06:01:04.501Z,90.13
2023-03-26T06:02:04.611Z,90.08
2023-03-26T06:03:04.921Z,90.16
2023-03-26T06:04:04.954Z,90.19
2023-03-26T06:05:04.991Z,90.14
2023-03-26T06:06:05.086Z,90.12
2023-03-26T06:07:05.205Z,90.25
2023-03-26T06:08:05.427Z,90.27
2023-03-26T06:09:05.463Z,90.27
2023-03-26T06:10:05.703Z,90.19
2023-03-26T06:11:05.681Z,90.23
2023-03-26T06:12:05.879Z,90.16
2023-03-26T06:13:05.950Z,90.08
2023-03-26T06:14:06.048Z,90.20
2023-03-26T06:15:06.271Z,90.20
2023-03-26T06:16:06.387Z,90.22
2023-03-26T06:17:06.429Z,90.19
2023-03-26T06:18:07.552Z,90.16
2023-03-26T06:19:07.715Z,89.98
2023-03-26T06:20:08.830Z,90.06
2023-03-26T06:21:06.915Z,90.07
2023-03-26T06:22:07.019Z,90.12
2023-03-26T06:23:07.224Z,90.11
2023-03-26T06:24:07.243Z,90.02
2023-03-26T06:25:07.422Z,90.04
2023-03-26T06:26:07.489Z,89.90
2023-03-26T06:27:07.628Z,89.94
2023-03-26T06:28:07.763Z,90.04
2023-03-26T06:29:07.805Z,89.97
2023-03-26T06:30:07.962Z,89.99
2023-03-26T06:31:08.081Z,90.06
2023-03-26T06:32:19.139Z,89.99
2023-03-26T06:33:09.242Z,90.23
2023-03-26T06:34:08.345Z,90.26
2023-03-26T06:35:08.441Z,90.26
2023-03-26T06:36:08.594Z,90.22
2023-03-26T06:37:08.735Z,90.12
2023-03-26T06:38:08.794Z,90.27
2023-03-26T06:39:08.940Z,90.35
2023-03-26T06:40:09.030Z,90.30
2023-03-26T06:41:09.164Z,90.35
2023-03-26T06:42:09.253Z,90.30
2023-03-26T06:43:11.124Z,90.33
2023-03-26T06:44:09.526Z,90.38
2023-03-26T06:45:09.653Z,90.51
2023-03-26T06:46:09.718Z,90.56
2023-03-26T06:47:09.937Z,90.54
2023-03-26T06:48:10.012Z,90.16
2023-03-26T06:49:10.026Z,90.12
2023-03-26T06:50:10.172Z,90.24
2023-03-26T06:51:10.271Z,90.24
2023-03-26T06:52:10.370Z,90.22
2023-03-26T06:53:10.502Z,90.30
2023-03-26T06:54:10.609Z,90.21
2023-03-26T06:55:10.809Z,90.04
2023-03-26T06:56:10.853Z,90.03
2023-03-26T06:57:11.020Z,89.96
2023-03-26T06:58:11.113Z,89.88
2023-03-26T06:59:11.222Z,89.88
2023-03-26T07:00:11.361Z,89.75
2023-03-26T07:01:11.456Z,89.92
2023-03-26T07:02:11.546Z,89.87
2023-03-26T07:03:11.704Z,90.13
2023-03-26T07:04:11.801Z,90.32
2023-03-26T07:05:11.912Z,90.41
2023-03-26T07:06:12.021Z,90.38
2023-03-26T07:07:12.113Z,90.17
2023-03-26T07:08:12.327Z,90.32
2023-03-26T07:09:12.449Z,90.43
2023-03-26T07:10:12.448Z,90.47
2023-03-26T07:11:12.583Z,90.54
2023-03-26T07:12:12.651Z,90.51
2023-03-26T07:13:12.766Z,90.45
2023-03-26T07:14:12.894Z,90.50
2023-03-26T07:15:13.000Z,90.56
2023-03-26T07:16:13.165Z,90.53
2023-03-26T07:17:13.216Z,90.52
2023-03-26T07:18:13.379Z,90.70
2023-03-26T07:19:13.447Z,90.75
2023-03-26T07:20:13.568Z,90.82
2023-03-26T07:21:13.717Z,90.71
2023-03-26T07:22:13.866Z,90.50
2023-03-26T07:23:13.862Z,90.63
2023-03-26T07:24:14.041Z,90.63
2023-03-26T07:25:14.145Z,90.64
2023-03-26T07:26:14.226Z,90.65
2023-03-26T07:27:14.433Z,90.65
2023-03-26T07:28:15.095Z,90.69
2023-03-26T07:29:14.578Z,90.78
2023-03-26T07:30:14.652Z,90.81
2023-03-26T07:31:14.811Z,90.79
2023-03-26T07:33:15.027Z,90.72
2023-03-26T07:34:15.123Z,90.59
2023-03-26T07:35:15.257Z,90.71
2023-03-26T07:36:15.328Z,90.72
2023-03-26T07:37:15.405Z,90.58
2023-03-26T07:38:15.505Z,90.56
2023-03-26T07:39:15.669Z,90.60
2023-03-26T07:40:16.040Z,90.68
2023-03-26T07:41:15.890Z,90.70
2023-03-26T07:42:15.966Z,90.78
2023-03-26T07:43:16.067Z,90.84
2023-03-26T07:44:16.252Z,90.91
2023-03-26T07:45:16.311Z,90.93
2023-03-26T07:46:16.476Z,90.97
2023-03-26T07:47:16.520Z,90.98
2023-03-26T07:48:16.699Z,91.07
2023-03-26T07:49:16.753Z,91.08
2023-03-26T07:50:18.298Z,91.16
2023-03-26T07:51:17.032Z,91.17
2023-03-26T07:52:17.152Z,91.24
2023-03-26T07:53:17.194Z,91.26
2023-03-26T07:54:17.293Z,91.28
2023-03-26T07:55:17.404Z,91.25
2023-03-26T07:56:17.578Z,91.16
2023-03-26T07:57:17.705Z,91.16
2023-03-26T07:58:17.746Z,91.21
2023-03-26T07:59:17.858Z,91.30
2023-03-26T08:00:18.001Z,91.33
2023-03-26T08:01:18.080Z,91.41
2023-03-26T08:02:18.204Z,91.05
2023-03-26T08:03:18.430Z,91.07
2023-03-26T08:04:24.337Z,91.15
2023-03-26T08:05:19.831Z,91.24
2023-03-26T08:06:18.639Z,91.29
2023-03-26T08:07:18.844Z,91.42
2023-03-26T08:08:18.954Z,91.42
2023-03-26T08:09:19.025Z,91.26
2023-03-26T08:10:19.162Z,91.12
2023-03-26T08:11:19.250Z,91.13
2023-03-26T08:12:19.385Z,90.96
2023-03-26T08:13:19.516Z,91.16
2023-03-26T08:14:19.596Z,91.17
2023-03-26T08:15:19.709Z,91.17
2023-03-26T08:16:19.964Z,91.23
2023-03-26T08:17:19.925Z,91.32
2023-03-26T08:18:20.096Z,91.39
2023-03-26T08:19:20.159Z,91.42
2023-03-26T08:20:20.277Z,91.39
2023-03-26T08:21:20.409Z,91.45
2023-03-26T08:22:20.514Z,91.64
2023-03-26T08:23:20.666Z,91.73
2023-03-26T08:24:20.748Z,91.76
2023-03-26T08:25:20.871Z,91.84
2023-03-26T08:26:20.992Z,91.69
2023-03-26T08:27:21.125Z,91.70
2023-03-26T08:28:21.251Z,91.81
2023-03-26T08:29:21.350Z,91.83
2023-03-26T08:30:21.403Z,91.81
2023-03-26T08:31:21.554Z,91.76
2023-03-26T08:32:21.666Z,91.76
2023-03-26T08:33:21.832Z,91.60
2023-03-26T08:34:21.872Z,91.56
2023-03-26T08:35:22.012Z,91.51
2023-03-26T08:36:22.142Z,91.51
2023-03-26T08:37:22.197Z,91.66
2023-03-26T08:38:22.368Z,91.68
2023-03-26T08:39:22.433Z,91.70
2023-03-26T08:40:22.517Z,91.80
2023-03-26T08:41:22.636Z,91.83
2023-03-26T08:42:22.793Z,91.87
2023-03-26T08:43:22.883Z,91.89
2023-03-26T08:44:22.996Z,91.80
2023-03-26T08:45:23.106Z,91.88
2023-03-26T08:46:23.274Z,91.84
2023-03-26T08:47:23.411Z,91.74
2023-03-26T08:48:23.498Z,91.83
2023-03-26T08:49:25.277Z,91.78
2023-03-26T08:50:23.671Z,91.75
2023-03-26T08:51:23.770Z,91.71
2023-03-26T08:52:23.879Z,91.76
2023-03-26T08:53:23.991Z,91.64
2023-03-26T08:54:24.128Z,91.77
2023-03-26T08:55:24.227Z,91.66
2023-03-26T08:56:24.325Z,91.68
2023-03-26T08:57:24.488Z,91.75
2023-03-26T08:58:24.544Z,91.80
2023-03-26T08:59:24.653Z,91.64
2023-03-26T09:00:24.770Z,91.65
2023-03-26T09:01:24.998Z,91.67
2023-03-26T09:02:25.084Z,91.70
2023-03-26T09:03:25.160Z,91.77
2023-03-26T09:04:25.250Z,91.66
2023-03-26T09:05:25.349Z,91.61
2023-03-26T09:06:25.537Z,91.65
2023-03-26T09:07:25.629Z,91.74
2023-03-26T09:08:25.690Z,91.57
2023-03-26T09:09:25.828Z,91.64
2023-03-26T09:10:25.939Z,91.70
2023-03-26T09:11:26.074Z,91.68
2023-03-26T09:12:26.172Z,91.84
2023-03-26T09:13:26.265Z,91.72
2023-03-26T09:14:26.478Z,91.58
2023-03-26T09:15:26.523Z,91.75
2023-03-26T09:16:26.726Z,91.77
2023-03-26T09:17:26.718Z,91.60
2023-03-26T09:18:26.819Z,91.64
2023-03-26T09:19:26.936Z,91.51
2023-03-26T09:20:27.181Z,91.44
2023-03-26T09:21:27.193Z,91.56
2023-03-26T09:22:27.255Z,91.52
2023-03-26T09:23:27.372Z,91.64
2023-03-26T09:24:27.470Z,91.74
2023-03-26T09:25:27.620Z,91.62
2023-03-26T09:26:27.750Z,91.55
2023-03-26T09:27:27.808Z,91.59
2023-03-26T09:28:27.975Z,91.61
2023-03-26T09:29:28.041Z,91.75
2023-03-26T09:30:28.147Z,91.45
2023-03-26T09:31:28.372Z,91.42
2023-03-26T09:32:28.489Z,91.48
2023-03-26T09:33:28.489Z,91.41
2023-03-26T09:34:28.591Z,91.45
2023-03-26T09:35:28.813Z,91.43
2023-03-26T09:36:28.993Z,91.13
2023-03-26T09:37:28.938Z,91.29
2023-03-26T09:38:29.066Z,91.15
2023-03-26T09:39:29.147Z,90.97
2023-03-26T09:40:29.286Z,91.09
2023-03-26T09:41:29.380Z,91.25
2023-03-26T09:42:29.517Z,91.17
2023-03-26T09:43:29.669Z,90.98
2023-03-26T09:44:29.733Z,91.11
2023-03-26T09:45:29.881Z,91.06
2023-03-26T09:46:29.951Z,91.27
2023-03-26T09:47:30.073Z,90.85
2023-03-26T09:48:30.299Z,90.88
2023-03-26T09:49:30.305Z,91.15
2023-03-26T09:50:30.412Z,90.99
2023-03-26T09:51:30.510Z,91.03
2023-03-26T09:52:30.658Z,91.18
2023-03-26T09:53:30.778Z,91.22
2023-03-26T09:54:30.849Z,91.16
2023-03-26T09:55:30.993Z,91.27
2023-03-26T09:56:31.110Z,90.87
2023-03-26T09:57:31.225Z,90.68
2023-03-26T09:58:31.331Z,91.07
2023-03-26T09:59:31.434Z,91.27
2023-03-26T10:00:31.543Z,90.96
2023-03-26T10:01:31.722Z,90.90
2023-03-26T10:02:46.429Z,90.87
2023-03-26T10:03:32.908Z,90.96
2023-03-26T10:04:32.044Z,91.01
2023-03-26T10:05:32.092Z,90.99
2023-03-26T10:06:32.246Z,91.01
2023-03-26T10:07:32.348Z,90.96
2023-03-26T10:08:32.655Z,90.90
2023-03-26T10:09:32.575Z,90.87
2023-03-26T10:10:32.676Z,90.95
2023-03-26T10:11:32.796Z,90.98
2023-03-26T10:12:32.896Z,91.14
2023-03-26T10:13:33.037Z,91.23
2023-03-26T10:14:33.183Z,91.36
2023-03-26T10:15:33.255Z,91.45
2023-03-26T10:16:33.389Z,91.48
2023-03-26T10:17:33.562Z,91.46
2023-03-26T10:18:33.586Z,91.29
2023-03-26T10:19:33.732Z,91.26
2023-03-26T10:20:33.804Z,91.31
2023-03-26T10:21:33.915Z,91.41
2023-03-26T10:22:34.084Z,91.25
2023-03-26T10:23:34.201Z,91.25
2023-03-26T10:24:34.348Z,91.42
2023-03-26T10:25:34.433Z,91.01
2023-03-26T10:26:34.541Z,91.18
2023-03-26T10:27:34.695Z,91.28
2023-03-26T10:28:34.834Z,91.36
2023-03-26T10:29:34.875Z,91.33
2023-03-26T10:30:35.163Z,90.38
2023-03-26T10:31:35.179Z,90.35
2023-03-26T10:32:35.284Z,90.72
2023-03-26T10:33:35.374Z,90.90
2023-03-26T10:34:35.529Z,90.81
2023-03-26T10:35:35.667Z,89.70
2023-03-26T10:36:35.757Z,89.85
2023-03-26T10:37:35.842Z,89.52
2023-03-26T10:38:35.940Z,89.26
2023-03-26T10:39:38.434Z,89.94
2023-03-26T10:40:36.261Z,90.33
2023-03-26T10:41:36.319Z,90.16
2023-03-26T10:42:36.375Z,90.45
2023-03-26T10:43:36.480Z,88.33
2023-03-26T10:44:36.632Z,88.89
2023-03-26T10:45:36.736Z,89.34
2023-03-26T10:46:36.909Z,89.72
2023-03-26T10:47:36.948Z,89.37
2023-03-26T10:48:37.132Z,88.88
2023-03-26T10:49:37.141Z,88.52
2023-03-26T10:50:37.328Z,89.05
2023-03-26T10:51:37.378Z,88.94
2023-03-26T10:52:37.485Z,88.51
2023-03-26T10:53:37.581Z,89.26
2023-03-26T10:54:37.714Z,88.88
2023-03-26T10:55:37.834Z,89.50
2023-03-26T10:56:38.025Z,89.52
2023-03-26T10:57:38.045Z,88.06
2023-03-26T10:58:48.489Z,88.26
2023-03-26T10:59:39.294Z,88.25
2023-03-26T11:00:38.464Z,88.17
2023-03-26T11:01:38.664Z,87.52
2023-03-26T11:02:38.611Z,87.04
2023-03-26T11:03:38.762Z,87.24
2023-03-26T11:04:38.913Z,88.40
2023-03-26T11:05:44.112Z,89.03
2023-03-26T11:06:39.097Z,89.04
2023-03-26T11:07:39.240Z,89.00
2023-03-26T11:08:39.332Z,89.33
2023-03-26T11:09:39.451Z,89.23
2023-03-26T11:10:39.568Z,88.50
2023-03-26T11:11:39.679Z,87.32
2023-03-26T11:12:39.779Z,87.48
2023-03-26T11:13:39.897Z,86.25
2023-03-26T11:14:40.011Z,87.43
2023-03-26T11:15:40.202Z,87.34
2023-03-26T11:16:40.249Z,88.05
2023-03-26T11:17:41.544Z,88.46
2023-03-26T11:18:40.451Z,88.55
2023-03-26T11:19:40.557Z,88.27
2023-03-26T11:20:40.681Z,87.96
2023-03-26T11:21:40.892Z,87.79
2023-03-26T11:22:40.931Z,87.52
2023-03-26T11:23:41.010Z,87.30
2023-03-26T11:24:41.103Z,87.49
2023-03-26T11:25:41.290Z,87.37
2023-03-26T11:26:41.356Z,87.87
2023-03-26T11:27:41.563Z,87.61
2023-03-26T11:28:41.700Z,87.37
2023-03-26T11:29:42.691Z,88.08
2023-03-26T11:30:41.859Z,88.21
2023-03-26T11:31:41.943Z,87.35
2023-03-26T11:32:42.191Z,87.41
2023-03-26T11:33:45.670Z,87.45
2023-03-26T11:34:42.273Z,87.49
2023-03-26T11:35:42.507Z,87.19
2023-03-26T11:36:42.507Z,87.03
2023-03-26T11:37:42.610Z,87.65
2023-03-26T11:38:42.738Z,87.80
2023-03-26T11:39:42.925Z,85.06
2023-03-26T11:40:43.056Z,85.29
2023-03-26T11:41:43.130Z,82.79
2023-03-26T11:42:43.186Z,82.82
2023-03-26T11:43:43.362Z,84.49
2023-03-26T11:44:43.419Z,85.86
2023-03-26T11:45:43.606Z,85.04
2023-03-26T11:46:43.722Z,85.62
2023-03-26T11:47:43.866Z,84.95
2023-03-26T11:48:44.091Z,83.74
2023-03-26T11:49:44.056Z,82.87
2023-03-26T11:50:44.166Z,84.71
2023-03-26T11:51:44.220Z,84.86
2023-03-26T11:52:45.910Z,84.22
2023-03-26T11:53:44.521Z,84.88
2023-03-26T11:54:44.577Z,85.19
2023-03-26T11:55:44.667Z,83.09
2023-03-26T11:57:03.973Z,84.50
2023-03-26T11:57:45.896Z,82.89
2023-03-26T11:58:45.088Z,82.72
2023-03-26T11:59:55.741Z,83.15
2023-03-26T12:00:46.250Z,83.37
2023-03-26T12:01:45.398Z,81.89
2023-03-26T12:02:45.491Z,82.66
2023-03-26T12:03:45.667Z,82.28
2023-03-26T12:04:45.748Z,82.43
2023-03-26T12:05:45.787Z,82.10
2023-03-26T12:06:45.925Z,81.94
2023-03-26T12:07:46.015Z,81.15
2023-03-26T12:08:46.168Z,81.53
2023-03-26T12:09:46.245Z,80.48
2023-03-26T12:10:46.379Z,80.13
2023-03-26T12:11:46.483Z,80.78
2023-03-26T12:12:46.590Z,81.17
2023-03-26T12:13:46.776Z,82.39
2023-03-26T12:14:46.872Z,81.91
2023-03-26T12:15:46.960Z,81.05
2023-03-26T12:16:47.097Z,81.67
2023-03-26T12:17:47.172Z,82.13
2023-03-26T12:18:47.328Z,81.66
2023-03-26T12:19:47.429Z,83.18
2023-03-26T12:20:47.538Z,83.00
2023-03-26T12:21:47.599Z,82.38
2023-03-26T12:22:47.947Z,82.95
2023-03-26T12:23:47.814Z,82.49
2023-03-26T12:24:47.946Z,82.86
2023-03-26T12:25:48.114Z,83.24
2023-03-26T12:26:48.154Z,83.17
2023-03-26T12:27:48.312Z,83.48
2023-03-26T12:28:48.436Z,84.04
2023-03-26T12:29:48.668Z,84.90
2023-03-26T12:30:48.615Z,85.46
2023-03-26T12:31:48.754Z,85.23
2023-03-26T12:32:48.847Z,85.09
2023-03-26T12:33:48.984Z,85.20
2023-03-26T12:34:49.045Z,85.51
2023-03-26T12:35:49.176Z,85.66
2023-03-26T12:36:49.270Z,84.42
2023-03-26T12:37:49.385Z,84.37
2023-03-26T12:39:16.682Z,83.71
2023-03-26T12:40:08.888Z,84.49
2023-03-26T12:40:50.730Z,85.37
2023-03-26T12:43:40.319Z,84.91
2023-03-26T12:44:47.212Z,85.13
2023-03-26T12:44:54.978Z,84.65
2023-03-26T12:44:59.178Z,84.99
2023-03-26T12:46:58.908Z,84.35
2023-03-26T12:47:58.983Z,84.15
2023-03-26T12:47:59.419Z,84.06
2023-03-26T12:48:51.716Z,83.89
2023-03-26T12:49:50.771Z,84.07
2023-03-26T12:50:50.832Z,84.25
2023-03-26T12:51:50.970Z,82.55
2023-03-26T12:52:51.085Z,82.23
2023-03-26T12:53:51.217Z,81.61
2023-03-26T12:54:51.306Z,82.05